Alpine, Idaho
Current Conditions -  °F | °C
As of 10:38 AM on Monday 22 Dec 2014 (Local Time) from KMYL Reporting Station
Broken Clouds Broken Clouds  
Wind Chill: 25°   Ceiling: 1500
Heat Index: 31°   Visibility: 9mi
Dew Point: 28°   Wind: 6mph
Humidity: 89%   Direction: 260°W
Pressure: 30.09"   Gusts: NA
Location:  44.6782°N, 116.766°W
Report Text: KMYL 221738Z AUTO 26005KT 9SM SCT007 BKN015 BKN038 M01/M02 A3009 RMK AO2 SNE1659B25E35 P0000 T10061022
Loading
Personal Weather Stations






























Interactive Weather Map New forecast layout! Learn more

10-Day Weather Forecast

Advertisements
Track Severe Weather on mobile